Time;durP1;ratioP1;P1;durP2;ratioP2;P2;SDS_P1;SDS_P2;PMS_P1;PMS_P2;Temp;Humidity;BMP_temperature;BMP_pressure;BME280_temperature;BME280_humidity;BME280_pressure;Samples;Min_cycle;Max_cycle;Signal;HPM_P1;HPM_P2
2022/06/09 00:01:43;;;;;;;2.47;1.15;;;;;;;;;;8355231;28;20041;-62
2022/06/09 00:05:43;;;;;;;4.65;1.15;;;;;;;;;;8356656;28;20064;-62
2022/06/09 00:09:47;;;;;;;3.40;1.17;;;;;;;;;;8349885;28;20036;-62
2022/06/09 00:13:47;;;;;;;2.78;1.08;;;;;;;;;;8352112;28;20031;-61
2022/06/09 00:17:47;;;;;;;2.47;1.05;;;;;;;;;;8352900;28;20051;-61
2022/06/09 00:21:47;;;;;;;3.28;1.45;;;;;;;;;;8352261;28;20029;-62
2022/06/09 00:25:48;;;;;;;6.90;1.70;;;;;;;;;;8353160;28;20062;-62
2022/06/09 00:29:49;;;;;;;2.75;1.42;;;;;;;;;;8354496;28;20131;-62
2022/06/09 00:33:49;;;;;;;2.63;1.45;;;;;;;;;;8354485;28;20071;-62
2022/06/09 00:37:49;;;;;;;7.13;1.27;;;;;;;;;;8353194;28;20061;-62
2022/06/09 00:41:50;;;;;;;4.70;1.30;;;;;;;;;;8354891;28;20567;-61
2022/06/09 00:46:03;;;;;;;3.95;1.27;;;;;;;;;;8350009;28;20839;-62
2022/06/09 00:50:05;;;;;;;7.35;1.55;;;;;;;;;;8355231;28;20029;-62
2022/06/09 00:54:11;;;;;;;5.43;1.38;;;;;;;;;;8354666;28;20039;-61
2022/06/09 00:58:16;;;;;;;3.17;1.20;;;;;;;;;;8354558;28;20119;-62
2022/06/09 01:02:18;;;;;;;5.10;1.58;;;;;;;;;;8353986;28;20052;-62
2022/06/09 01:06:20;;;;;;;2.85;1.30;;;;;;;;;;8352095;28;20024;-62
2022/06/09 01:10:21;;;;;;;4.15;1.42;;;;;;;;;;8348037;28;20126;-61
2022/06/09 01:14:23;;;;;;;4.32;1.33;;;;;;;;;;8350762;28;20662;-62
2022/06/09 01:18:53;;;;;;;4.82;1.20;;;;;;;;;;8352584;28;20032;-62
2022/06/09 01:22:56;;;;;;;5.47;1.33;;;;;;;;;;8343577;28;20040;-62
2022/06/09 01:27:03;;;;;;;4.00;1.30;;;;;;;;;;8355204;28;20028;-63
2022/06/09 01:31:07;;;;;;;7.85;1.50;;;;;;;;;;8354953;28;20422;-62
2022/06/09 01:35:21;;;;;;;3.15;1.13;;;;;;;;;;8357054;28;20052;-62
2022/06/09 01:39:29;;;;;;;4.70;1.45;;;;;;;;;;8353898;28;20636;-62
2022/06/09 01:43:29;;;;;;;7.05;1.48;;;;;;;;;;8355365;28;20036;-62
2022/06/09 01:47:33;;;;;;;5.07;1.40;;;;;;;;;;8355163;28;20527;-62
2022/06/09 01:51:34;;;;;;;;;;;;;;;;;;8356662;28;20037;-62
2022/06/09 01:55:37;;;;;;;1.63;1.13;;;;;;;;;;8355937;28;19956;-62
2022/06/09 01:59:44;;;;;;;6.20;1.40;;;;;;;;;;8348070;28;20028;-62
2022/06/09 02:03:45;;;;;;;4.15;1.33;;;;;;;;;;8353353;28;20044;-68
2022/06/09 02:07:46;;;;;;;3.63;1.67;;;;;;;;;;8354621;28;20507;-62
2022/06/09 02:11:51;;;;;;;3.28;1.30;;;;;;;;;;8355654;28;20397;-62
2022/06/09 02:15:53;;;;;;;5.13;1.52;;;;;;;;;;8350761;28;20757;-62
2022/06/09 02:19:53;;;;;;;3.40;1.35;;;;;;;;;;8349421;28;20032;-62
2022/06/09 02:23:53;;;;;;;7.95;1.50;;;;;;;;;;8349878;28;20042;-62
2022/06/09 02:27:53;;;;;;;6.78;1.20;;;;;;;;;;8356639;28;20089;-62
2022/06/09 02:31:54;;;;;;;4.10;1.20;;;;;;;;;;8361744;28;20040;-62
2022/06/09 02:35:54;;;;;;;4.75;1.25;;;;;;;;;;8366340;28;20118;-62
2022/06/09 02:39:55;;;;;;;3.15;1.20;;;;;;;;;;8366250;28;20029;-62
2022/06/09 02:43:55;;;;;;;4.38;1.30;;;;;;;;;;8364163;28;20020;-62
2022/06/09 02:47:55;;;;;;;2.93;1.47;;;;;;;;;;8363702;28;20036;-61
2022/06/09 02:51:55;;;;;;;5.78;1.48;;;;;;;;;;8358516;28;21526;-62
2022/06/09 02:55:56;;;;;;;2.50;1.10;;;;;;;;;;8361318;28;20016;-62
2022/06/09 02:59:56;;;;;;;3.25;1.20;;;;;;;;;;8362697;28;20078;-62
2022/06/09 03:03:56;;;;;;;4.40;1.20;;;;;;;;;;8364637;28;20050;-62
2022/06/09 03:07:56;;;;;;;4.73;1.30;;;;;;;;;;8361522;28;20023;-62
2022/06/09 03:11:56;;;;;;;3.42;1.20;;;;;;;;;;8364906;28;20262;-62
2022/06/09 03:15:57;;;;;;;6.30;1.30;;;;;;;;;;8363665;28;20102;-62
2022/06/09 03:19:57;;;;;;;2.70;1.33;;;;;;;;;;8366112;28;20041;-62
2022/06/09 03:23:58;;;;;;;5.90;1.33;;;;;;;;;;8363894;28;20537;-62
2022/06/09 03:27:58;;;;;;;3.58;1.17;;;;;;;;;;8363422;28;20029;-62
2022/06/09 03:31:58;;;;;;;5.43;1.30;;;;;;;;;;8362608;28;20044;-62
2022/06/09 03:35:58;;;;;;;3.25;1.40;;;;;;;;;;8365190;28;20251;-61
2022/06/09 03:39:59;;;;;;;5.72;1.25;;;;;;;;;;8361433;28;20031;-63
2022/06/09 03:43:59;;;;;;;2.45;1.10;;;;;;;;;;8358746;28;20127;-62
2022/06/09 03:47:59;;;;;;;5.30;1.10;;;;;;;;;;8359659;28;20135;-62
2022/06/09 03:52:00;;;;;;;4.53;1.10;;;;;;;;;;8358299;28;20013;-62
2022/06/09 03:56:00;;;;;;;6.30;1.23;;;;;;;;;;8359958;28;20016;-62
2022/06/09 04:00:00;;;;;;;3.30;1.02;;;;;;;;;;8357356;28;20082;-62
2022/06/09 04:04:00;;;;;;;5.90;1.30;;;;;;;;;;8359499;28;20036;-62
2022/06/09 04:08:02;;;;;;;3.10;1.30;;;;;;;;;;8360172;28;20826;-62
2022/06/09 04:12:02;;;;;;;5.95;1.48;;;;;;;;;;8354010;28;20042;-62
2022/06/09 04:16:09;;;;;;;5.50;1.33;;;;;;;;;;8359592;28;20631;-63
2022/06/09 04:20:10;;;;;;;7.38;1.60;;;;;;;;;;8357677;28;20875;-62
2022/06/09 04:24:10;;;;;;;5.70;1.80;;;;;;;;;;8356016;28;20118;-62
2022/06/09 04:28:11;;;;;;;3.92;1.50;;;;;;;;;;8355948;28;20687;-62
2022/06/09 04:32:11;;;;;;;12.70;1.98;;;;;;;;;;8356707;28;20116;-62
2022/06/09 04:36:12;;;;;;;7.50;1.73;;;;;;;;;;8357001;28;20103;-62
2022/06/09 04:40:13;;;;;;;5.00;1.42;;;;;;;;;;8352230;28;20028;-62
2022/06/09 04:44:13;;;;;;;10.18;2.00;;;;;;;;;;8354964;28;20025;-62
2022/06/09 04:48:13;;;;;;;5.03;1.38;;;;;;;;;;8354461;28;20044;-62
2022/06/09 04:52:13;;;;;;;6.93;1.90;;;;;;;;;;8352548;28;20036;-62
2022/06/09 04:56:14;;;;;;;4.07;1.27;;;;;;;;;;8353827;28;20028;-62
2022/06/09 05:00:15;;;;;;;5.13;1.40;;;;;;;;;;8353907;28;20028;-62
2022/06/09 05:04:15;;;;;;;6.95;1.50;;;;;;;;;;8353136;28;20017;-62
2022/06/09 05:08:16;;;;;;;11.20;1.60;;;;;;;;;;8352620;28;20028;-62
2022/06/09 05:12:17;;;;;;;6.13;1.60;;;;;;;;;;8355340;28;20170;-62
2022/06/09 05:16:17;;;;;;;7.73;1.10;;;;;;;;;;8352658;28;20044;-62
2022/06/09 05:20:21;;;;;;;7.32;1.50;;;;;;;;;;8354150;28;20275;-62
2022/06/09 05:24:22;;;;;;;4.40;1.30;;;;;;;;;;8354067;28;20036;-62
2022/06/09 05:28:23;;;;;;;7.43;1.45;;;;;;;;;;8351344;28;20712;-62
2022/06/09 05:32:23;;;;;;;11.88;1.42;;;;;;;;;;8353483;28;20065;-62
2022/06/09 05:36:23;;;;;;;6.40;1.63;;;;;;;;;;8354262;28;20029;-62
2022/06/09 05:44:53;;;;;;;4.80;1.30;;;;;;;;;;8336052;28;21145;-62
2022/06/09 05:48:54;;;;;;;12.32;1.67;;;;;;;;;;8354275;28;20045;-62
2022/06/09 05:52:54;;;;;;;4.90;1.50;;;;;;;;;;8355640;28;20784;-62
2022/06/09 05:56:54;;;;;;;3.83;1.40;;;;;;;;;;8354343;28;20060;-63
2022/06/09 06:00:54;;;;;;;7.60;1.43;;;;;;;;;;8354524;28;20048;-62
2022/06/09 06:04:54;;;;;;;3.75;1.40;;;;;;;;;;8354397;28;20749;-62
2022/06/09 06:08:55;;;;;;;6.82;1.52;;;;;;;;;;8355131;28;20516;-62
2022/06/09 06:12:55;;;;;;;5.03;1.98;;;;;;;;;;8354008;28;20029;-62
2022/06/09 06:16:55;;;;;;;7.43;1.53;;;;;;;;;;8355131;28;20032;-63
2022/06/09 06:20:56;;;;;;;6.70;1.80;;;;;;;;;;8355060;28;20280;-62
2022/06/09 06:24:59;;;;;;;8.50;1.48;;;;;;;;;;8353838;28;20032;-62
2022/06/09 06:29:01;;;;;;;5.72;1.65;;;;;;;;;;8354919;28;20139;-62
2022/06/09 06:33:01;;;;;;;6.75;1.48;;;;;;;;;;8353494;28;20492;-62
2022/06/09 06:37:01;;;;;;;8.40;2.25;;;;;;;;;;8355523;28;20017;-62
2022/06/09 06:41:03;;;;;;;8.95;1.40;;;;;;;;;;8355710;28;20025;-62
2022/06/09 06:45:03;;;;;;;3.55;1.30;;;;;;;;;;8354733;28;20033;-62
2022/06/09 06:49:04;;;;;;;6.13;1.27;;;;;;;;;;8353712;28;20040;-62
2022/06/09 06:53:05;;;;;;;5.38;1.50;;;;;;;;;;8351158;28;20036;-62
2022/06/09 06:57:05;;;;;;;9.67;1.87;;;;;;;;;;8355259;28;21075;-62
2022/06/09 07:01:05;;;;;;;8.23;1.58;;;;;;;;;;8351501;28;20332;-62
2022/06/09 07:05:08;;;;;;;3.72;1.50;;;;;;;;;;8354472;28;20119;-62
2022/06/09 07:09:08;;;;;;;9.40;1.85;;;;;;;;;;8352631;28;20857;-62
2022/06/09 07:13:08;;;;;;;9.30;1.60;;;;;;;;;;8355064;28;20046;-62
2022/06/09 07:17:08;;;;;;;9.90;1.83;;;;;;;;;;8357152;28;20810;-62
2022/06/09 07:21:09;;;;;;;5.90;1.73;;;;;;;;;;8359831;28;20039;-62
2022/06/09 07:25:13;;;;;;;7.82;1.80;;;;;;;;;;8361040;28;20028;-62
2022/06/09 07:29:13;;;;;;;6.90;1.60;;;;;;;;;;8359724;28;20020;-62
2022/06/09 07:33:14;;;;;;;7.32;1.50;;;;;;;;;;8360302;28;20246;-62
2022/06/09 07:37:14;;;;;;;5.90;1.58;;;;;;;;;;8362026;28;20024;-62
2022/06/09 07:41:14;;;;;;;8.35;1.85;;;;;;;;;;8358362;28;20039;-62
2022/06/09 07:45:16;;;;;;;7.85;1.70;;;;;;;;;;8360453;28;20025;-63
2022/06/09 07:49:16;;;;;;;11.75;2.00;;;;;;;;;;8360844;28;20094;-62
2022/06/09 07:53:17;;;;;;;5.80;1.52;;;;;;;;;;8357819;28;20020;-62
2022/06/09 07:57:17;;;;;;;6.95;1.70;;;;;;;;;;8359795;28;20032;-62
2022/06/09 08:01:20;;;;;;;4.47;1.67;;;;;;;;;;8356886;28;20105;-62
2022/06/09 08:05:21;;;;;;;3.92;1.50;;;;;;;;;;8362579;28;20036;-63
2022/06/09 08:09:22;;;;;;;5.72;1.30;;;;;;;;;;8357929;28;20036;-63
2022/06/09 08:13:22;;;;;;;2.38;1.27;;;;;;;;;;8358547;28;20024;-63
2022/06/09 08:17:23;;;;;;;7.30;1.48;;;;;;;;;;8358462;28;20187;-62
2022/06/09 08:21:23;;;;;;;8.07;1.42;;;;;;;;;;8357251;28;20043;-62
2022/06/09 08:25:23;;;;;;;5.75;1.48;;;;;;;;;;8357363;28;20114;-62
2022/06/09 08:29:24;;;;;;;5.18;1.52;;;;;;;;;;8356467;28;20135;-62
2022/06/09 08:33:26;;;;;;;2.80;1.10;;;;;;;;;;8355035;28;20068;-63
2022/06/09 08:37:26;;;;;;;5.15;1.60;;;;;;;;;;8357643;28;20505;-62
2022/06/09 08:41:33;;;;;;;8.37;1.40;;;;;;;;;;8357734;28;20024;-62
2022/06/09 08:45:37;;;;;;;5.35;1.40;;;;;;;;;;8356308;28;20036;-62
2022/06/09 08:49:50;;;;;;;8.55;1.90;;;;;;;;;;8357885;28;20036;-62
2022/06/09 08:53:54;;;;;;;6.22;1.60;;;;;;;;;;8356220;28;20039;-63
2022/06/09 08:57:59;;;;;;;5.78;1.80;;;;;;;;;;8357230;28;20030;-62
2022/06/09 09:02:00;;;;;;;7.40;1.45;;;;;;;;;;8357176;28;20036;-62
2022/06/09 09:06:04;;;;;;;8.15;1.83;;;;;;;;;;8357838;28;20025;-62
2022/06/09 09:10:28;;;;;;;4.78;1.38;;;;;;;;;;8354456;28;20710;-62
2022/06/09 09:14:30;;;;;;;5.75;1.80;;;;;;;;;;8345964;28;20028;-62
2022/06/09 09:18:39;;;;;;;5.97;1.60;;;;;;;;;;8353337;28;20542;-62
2022/06/09 09:22:42;;;;;;;4.15;1.48;;;;;;;;;;8357285;28;20626;-62
2022/06/09 09:26:42;;;;;;;5.00;1.77;;;;;;;;;;8355282;28;20028;-62
2022/06/09 09:30:48;;;;;;;4.57;1.50;;;;;;;;;;8354803;28;20047;-62
2022/06/09 09:34:49;;;;;;;6.40;1.60;;;;;;;;;;8356632;28;20438;-62
2022/06/09 09:39:10;;;;;;;6.82;1.70;;;;;;;;;;8353831;28;20029;-62
2022/06/09 09:43:10;;;;;;;5.97;1.75;;;;;;;;;;8356156;28;20032;-62
2022/06/09 09:47:22;;;;;;;4.03;1.27;;;;;;;;;;8355400;28;20041;-63
2022/06/09 09:51:30;;;;;;;3.72;1.50;;;;;;;;;;8351764;28;20029;-62
2022/06/09 09:55:31;;;;;;;8.07;1.50;;;;;;;;;;8353400;28;20025;-62
2022/06/09 09:59:40;;;;;;;5.67;1.40;;;;;;;;;;8354714;28;20035;-62
2022/06/09 10:12:34;;;;;;;6.10;1.80;;;;;;;;;;8354966;28;20143;-63
2022/06/09 10:16:35;;;;;;;4.18;1.42;;;;;;;;;;8351621;28;20029;-63
2022/06/09 10:20:37;;;;;;;3.38;1.40;;;;;;;;;;8355416;28;20126;-62
2022/06/09 10:24:47;;;;;;;4.35;1.40;;;;;;;;;;8354942;28;20025;-63
2022/06/09 10:28:54;;;;;;;3.67;1.30;;;;;;;;;;8353738;28;20031;-63
2022/06/09 10:33:14;;;;;;;4.50;1.48;;;;;;;;;;8352966;28;20155;-63
2022/06/09 10:37:25;;;;;;;5.85;1.50;;;;;;;;;;8355120;28;20121;-63
2022/06/09 10:41:36;;;;;;;4.82;1.60;;;;;;;;;;8355035;28;20036;-62
2022/06/09 10:45:42;;;;;;;3.95;1.50;;;;;;;;;;8350632;28;20029;-63
2022/06/09 10:58:49;;;;;;;3.80;1.50;;;;;;;;;;8358929;28;20024;-62
2022/06/09 11:02:51;;;;;;;6.25;1.65;;;;;;;;;;8359596;28;20928;-62
2022/06/09 11:06:57;;;;;;;7.65;1.80;;;;;;;;;;8358458;28;21032;-63
2022/06/09 11:11:07;;;;;;;6.32;1.60;;;;;;;;;;8359574;28;20396;-63
2022/06/09 11:15:10;;;;;;;10.40;1.55;;;;;;;;;;8357168;28;20024;-63
2022/06/09 11:19:13;;;;;;;5.00;1.60;;;;;;;;;;8357147;28;20036;-62
2022/06/09 11:23:16;;;;;;;3.35;1.48;;;;;;;;;;8357409;28;20040;-62
2022/06/09 11:27:25;;;;;;;4.03;1.38;;;;;;;;;;8358147;28;20032;-62
2022/06/09 11:31:35;;;;;;;8.35;1.60;;;;;;;;;;8357491;28;20043;-62
2022/06/09 11:35:40;;;;;;;4.30;1.30;;;;;;;;;;8357625;28;20149;-62
2022/06/09 11:39:42;;;;;;;5.25;1.60;;;;;;;;;;8355135;28;20449;-63
2022/06/09 11:43:43;;;;;;;5.83;2.10;;;;;;;;;;8354715;28;20028;-63
2022/06/09 11:47:43;;;;;;;6.70;1.67;;;;;;;;;;8355171;28;20044;-62
2022/06/09 11:51:45;;;;;;;7.53;1.75;;;;;;;;;;8356760;28;20294;-63
2022/06/09 11:55:57;;;;;;;5.78;1.63;;;;;;;;;;8358027;28;20028;-63
2022/06/09 12:00:16;;;;;;;4.80;1.65;;;;;;;;;;8353093;28;20020;-62
2022/06/09 12:04:31;;;;;;;8.40;1.67;;;;;;;;;;8354039;28;20036;-61
2022/06/09 12:08:52;;;;;;;7.03;1.60;;;;;;;;;;8354928;28;20120;-62
2022/06/09 12:13:05;;;;;;;5.45;1.67;;;;;;;;;;8347979;28;20469;-62
2022/06/09 12:17:17;;;;;;;7.13;1.70;;;;;;;;;;8350091;28;20037;-62
2022/06/09 12:21:28;;;;;;;7.93;1.60;;;;;;;;;;8355362;28;20496;-61
2022/06/09 12:25:33;;;;;;;9.50;1.58;;;;;;;;;;8355140;28;20052;-62
2022/06/09 12:29:44;;;;;;;3.70;1.58;;;;;;;;;;8357086;28;20067;-61
2022/06/09 12:33:53;;;;;;;4.43;1.65;;;;;;;;;;8349743;28;20126;-62
2022/06/09 12:37:56;;;;;;;5.30;1.45;;;;;;;;;;8352854;28;20027;-62
2022/06/09 12:41:58;;;;;;;9.32;1.40;;;;;;;;;;8358065;28;20035;-61
2022/06/09 12:46:16;;;;;;;7.55;1.65;;;;;;;;;;8354464;28;20062;-62
2022/06/09 12:50:27;;;;;;;3.78;1.58;;;;;;;;;;8358109;28;20032;-62
2022/06/09 12:54:32;;;;;;;3.70;1.30;;;;;;;;;;8357745;28;20028;-62
2022/06/09 12:58:40;;;;;;;3.58;1.20;;;;;;;;;;8354892;28;20513;-63
2022/06/09 13:02:40;;;;;;;4.53;1.60;;;;;;;;;;8352559;28;20877;-62
2022/06/09 13:06:40;;;;;;;6.00;1.27;;;;;;;;;;8354794;28;20139;-63
2022/06/09 13:10:43;;;;;;;5.30;1.50;;;;;;;;;;8350888;28;20381;-63
2022/06/09 13:14:43;;;;;;;;;;;;;;;;;;8351425;28;20074;-62
2022/06/09 13:18:46;;;;;;;5.35;1.48;;;;;;;;;;8354741;28;20339;-62
2022/06/09 13:22:47;;;;;;;4.85;1.38;;;;;;;;;;8352391;28;20496;-62
2022/06/09 13:26:48;;;;;;;3.80;1.25;;;;;;;;;;8355436;28;20410;-62
2022/06/09 13:30:50;;;;;;;8.73;1.40;;;;;;;;;;8349289;28;20039;-62
2022/06/09 13:34:52;;;;;;;4.55;1.63;;;;;;;;;;8352770;28;20051;-61
2022/06/09 13:38:53;;;;;;;5.68;1.80;;;;;;;;;;8355319;28;20029;-62
2022/06/09 13:42:58;;;;;;;4.35;1.40;;;;;;;;;;8356097;28;20553;-62
2022/06/09 13:47:18;;;;;;;5.40;1.48;;;;;;;;;;8353882;28;20033;-61
2022/06/09 13:51:18;;;;;;;3.20;1.20;;;;;;;;;;8355080;28;20090;-62
2022/06/09 13:55:23;;;;;;;4.45;1.08;;;;;;;;;;8355594;28;20894;-62
2022/06/09 13:59:25;;;;;;;15.48;1.13;;;;;;;;;;8353838;28;20115;-62
2022/06/09 14:03:29;;;;;;;29.65;1.70;;;;;;;;;;8353342;28;20045;-62
2022/06/09 14:07:29;;;;;;;19.40;2.40;;;;;;;;;;8355438;28;20036;-62
2022/06/09 14:11:30;;;;;;;7.22;1.50;;;;;;;;;;8352868;28;20063;-63
2022/06/09 14:15:32;;;;;;;8.32;1.70;;;;;;;;;;8353414;28;20036;-64
2022/06/09 14:19:32;;;;;;;4.90;1.42;;;;;;;;;;8354963;28;20020;-62
2022/06/09 14:23:35;;;;;;;5.35;1.42;;;;;;;;;;8352240;28;20032;-62
2022/06/09 14:27:35;;;;;;;4.13;1.30;;;;;;;;;;8351047;28;20036;-62
2022/06/09 14:31:35;;;;;;;5.90;1.60;;;;;;;;;;8350326;28;20804;-62
2022/06/09 14:35:35;;;;;;;5.57;1.53;;;;;;;;;;8351301;28;20032;-62
2022/06/09 14:39:35;;;;;;;4.63;1.27;;;;;;;;;;8350489;28;20029;-62
2022/06/09 14:43:35;;;;;;;2.92;1.20;;;;;;;;;;8350215;28;20123;-62
2022/06/09 14:47:36;;;;;;;3.42;1.00;;;;;;;;;;8351388;28;20036;-62
2022/06/09 14:51:36;;;;;;;2.23;1.00;;;;;;;;;;8351351;28;20031;-62
2022/06/09 14:55:37;;;;;;;1.73;0.80;;;;;;;;;;8352766;28;20763;-62
2022/06/09 14:59:37;;;;;;;4.63;0.95;;;;;;;;;;8349465;28;20028;-63
2022/06/09 15:03:37;;;;;;;2.88;1.00;;;;;;;;;;8348411;28;20041;-62
2022/06/09 15:07:37;;;;;;;3.23;1.17;;;;;;;;;;8349830;28;20826;-62
2022/06/09 15:11:38;;;;;;;1.80;0.90;;;;;;;;;;8349478;28;20355;-62
2022/06/09 15:15:38;;;;;;;3.67;1.08;;;;;;;;;;8347896;28;20044;-63
2022/06/09 15:19:38;;;;;;;3.33;1.00;;;;;;;;;;8349992;28;20045;-63
2022/06/09 15:23:39;;;;;;;7.27;1.20;;;;;;;;;;8348662;28;20052;-62
2022/06/09 15:27:40;;;;;;;2.97;1.00;;;;;;;;;;8352208;28;20017;-62
2022/06/09 15:31:41;;;;;;;2.25;1.00;;;;;;;;;;8347810;28;20041;-62
2022/06/09 15:40:21;;;;;;;4.65;1.30;;;;;;;;;;8381595;28;20075;-62
2022/06/09 15:44:22;;;;;;;2.38;1.00;;;;;;;;;;8361454;28;21015;-62
2022/06/09 15:48:29;;;;;;;3.40;0.80;;;;;;;;;;8354237;28;20997;-62
2022/06/09 15:52:29;;;;;;;2.22;1.00;;;;;;;;;;8353544;28;20028;-62
2022/06/09 15:56:29;;;;;;;4.10;1.38;;;;;;;;;;8353155;28;20082;-62
2022/06/09 16:00:31;;;;;;;3.87;1.33;;;;;;;;;;8355811;28;20028;-63
2022/06/09 16:04:31;;;;;;;2.13;1.10;;;;;;;;;;8359280;28;20024;-62
2022/06/09 16:08:31;;;;;;;3.20;1.27;;;;;;;;;;8359424;28;20031;-63
2022/06/09 16:12:33;;;;;;;2.42;1.10;;;;;;;;;;8356758;28;20021;-61
2022/06/09 16:16:33;;;;;;;3.47;1.15;;;;;;;;;;8355056;28;20040;-63
2022/06/09 16:20:36;;;;;;;3.05;1.15;;;;;;;;;;8355815;28;20135;-62
2022/06/09 16:24:36;;;;;;;2.55;1.30;;;;;;;;;;8367680;28;20127;-62
2022/06/09 16:28:36;;;;;;;3.10;1.20;;;;;;;;;;8359034;28;20107;-62
2022/06/09 16:32:36;;;;;;;3.55;1.02;;;;;;;;;;8355547;28;20044;-62
2022/06/09 16:36:37;;;;;;;5.17;1.10;;;;;;;;;;8358780;28;20485;-62
2022/06/09 16:40:39;;;;;;;6.25;1.20;;;;;;;;;;8357317;28;20039;-62
2022/06/09 16:44:39;;;;;;;3.88;1.20;;;;;;;;;;8358095;28;20059;-62
2022/06/09 16:48:40;;;;;;;5.57;1.40;;;;;;;;;;8355901;28;20105;-62
2022/06/09 16:52:40;;;;;;;5.45;1.40;;;;;;;;;;8356707;28;20020;-62
2022/06/09 16:56:40;;;;;;;6.18;1.20;;;;;;;;;;8350204;28;20025;-62
2022/06/09 17:00:41;;;;;;;4.45;1.08;;;;;;;;;;8350176;28;20033;-62
2022/06/09 17:04:41;;;;;;;3.20;1.10;;;;;;;;;;8348666;28;20128;-61
2022/06/09 17:08:42;;;;;;;5.47;1.30;;;;;;;;;;8352265;28;20098;-62
2022/06/09 17:12:42;;;;;;;3.33;1.27;;;;;;;;;;8350103;28;20673;-62
2022/06/09 17:16:42;;;;;;;4.50;1.17;;;;;;;;;;8347920;28;20464;-62
2022/06/09 17:20:43;;;;;;;4.07;1.10;;;;;;;;;;8349558;28;20283;-61
2022/06/09 17:24:43;;;;;;;3.58;1.00;;;;;;;;;;8365123;28;20033;-61
2022/06/09 17:28:44;;;;;;;4.53;1.10;;;;;;;;;;8349827;28;20415;-62
2022/06/09 17:32:44;;;;;;;5.95;0.93;;;;;;;;;;8348773;28;20673;-62
2022/06/09 17:36:46;;;;;;;3.78;0.90;;;;;;;;;;8350376;28;20780;-61
2022/06/09 17:40:46;;;;;;;3.38;1.30;;;;;;;;;;8344934;28;20032;-61
2022/06/09 17:44:46;;;;;;;4.35;1.20;;;;;;;;;;8347185;28;20028;-61
2022/06/09 17:48:47;;;;;;;3.45;1.20;;;;;;;;;;8345154;28;20044;-61
2022/06/09 17:52:48;;;;;;;5.18;1.20;;;;;;;;;;8344681;28;20487;-62
2022/06/09 17:56:49;;;;;;;7.28;1.70;;;;;;;;;;8345934;28;20496;-61
2022/06/09 18:00:50;;;;;;;4.90;1.30;;;;;;;;;;8344554;28;20152;-61
2022/06/09 18:04:53;;;;;;;6.60;1.27;;;;;;;;;;8345889;28;20027;-61
2022/06/09 18:08:54;;;;;;;3.92;1.20;;;;;;;;;;8342545;28;20024;-61
2022/06/09 18:12:57;;;;;;;6.03;1.02;;;;;;;;;;8346314;28;20050;-61
2022/06/09 18:16:57;;;;;;;5.80;1.17;;;;;;;;;;8343064;28;20047;-61
2022/06/09 18:20:57;;;;;;;6.32;1.00;;;;;;;;;;8344117;28;20641;-61
2022/06/09 18:24:57;;;;;;;4.90;1.02;;;;;;;;;;8343797;28;20051;-61
2022/06/09 18:28:57;;;;;;;3.42;1.00;;;;;;;;;;8343444;28;20028;-61
2022/06/09 18:32:57;;;;;;;4.68;1.20;;;;;;;;;;8347115;28;20039;-62
2022/06/09 18:36:58;;;;;;;3.10;1.00;;;;;;;;;;8348816;28;20044;-62
2022/06/09 18:40:59;;;;;;;1.85;1.00;;;;;;;;;;8345852;28;20556;-62
2022/06/09 18:44:59;;;;;;;7.80;1.00;;;;;;;;;;8345883;28;20046;-62
2022/06/09 18:49:00;;;;;;;3.15;1.17;;;;;;;;;;8346021;28;20067;-61
2022/06/09 18:53:01;;;;;;;4.03;1.20;;;;;;;;;;8344493;28;20021;-61
2022/06/09 18:57:02;;;;;;;2.65;1.50;;;;;;;;;;8344938;28;20082;-61
2022/06/09 19:01:03;;;;;;;6.68;1.33;;;;;;;;;;8342928;28;20600;-62
2022/06/09 19:05:04;;;;;;;2.88;1.20;;;;;;;;;;8347310;28;20465;-61
2022/06/09 19:09:05;;;;;;;2.33;1.13;;;;;;;;;;8345002;28;20039;-61
2022/06/09 19:13:05;;;;;;;3.28;1.20;;;;;;;;;;8347243;28;20482;-60
2022/06/09 19:17:06;;;;;;;2.37;1.20;;;;;;;;;;8350307;28;20036;-61
2022/06/09 19:21:07;;;;;;;2.05;1.10;;;;;;;;;;8350211;28;20037;-61
2022/06/09 19:25:07;;;;;;;2.10;1.08;;;;;;;;;;8353619;28;20028;-61
2022/06/09 19:29:07;;;;;;;2.65;1.05;;;;;;;;;;8349213;28;20253;-61
2022/06/09 19:33:08;;;;;;;4.93;1.20;;;;;;;;;;8351421;28;20381;-61
2022/06/09 19:37:10;;;;;;;2.42;1.20;;;;;;;;;;8350021;28;20765;-61
2022/06/09 19:41:12;;;;;;;3.35;1.10;;;;;;;;;;8349821;28;20115;-61
2022/06/09 19:45:14;;;;;;;3.65;1.10;;;;;;;;;;8347414;28;20371;-62
2022/06/09 19:49:15;;;;;;;3.90;1.20;;;;;;;;;;8347047;28;20429;-62
2022/06/09 19:53:17;;;;;;;4.35;1.40;;;;;;;;;;8348016;28;20086;-62
2022/06/09 19:57:17;;;;;;;2.45;1.35;;;;;;;;;;8348447;28;20449;-62
2022/06/09 20:01:19;;;;;;;5.45;1.30;;;;;;;;;;8348381;28;20044;-61
2022/06/09 20:05:19;;;;;;;6.15;1.50;;;;;;;;;;8347341;28;20029;-62
2022/06/09 20:09:19;;;;;;;4.10;1.60;;;;;;;;;;8354903;28;20036;-62
2022/06/09 20:13:19;;;;;;;3.30;1.65;;;;;;;;;;8353680;28;20021;-61
2022/06/09 20:17:21;;;;;;;6.88;1.70;;;;;;;;;;8353983;28;20148;-62
2022/06/09 20:21:22;;;;;;;3.13;1.50;;;;;;;;;;8355639;28;20056;-62
2022/06/09 20:25:24;;;;;;;7.07;1.52;;;;;;;;;;8354348;28;20035;-62
2022/06/09 20:29:24;;;;;;;3.22;1.40;;;;;;;;;;8352339;28;20031;-62
2022/06/09 20:33:24;;;;;;;4.70;1.80;;;;;;;;;;8354406;28;20032;-61
2022/06/09 20:37:24;;;;;;;8.05;1.70;;;;;;;;;;8355612;28;20057;-61
2022/06/09 20:41:25;;;;;;;5.20;1.40;;;;;;;;;;8350520;28;20028;-61
2022/06/09 20:45:25;;;;;;;2.05;1.23;;;;;;;;;;8355022;28;20525;-63
2022/06/09 20:49:27;;;;;;;4.07;1.23;;;;;;;;;;8357084;28;20071;-62
2022/06/09 20:53:27;;;;;;;3.63;1.52;;;;;;;;;;8356669;28;20541;-61
2022/06/09 20:57:30;;;;;;;5.15;1.50;;;;;;;;;;8354840;28;20100;-61
2022/06/09 21:01:30;;;;;;;5.65;1.50;;;;;;;;;;8354570;28;20039;-61
2022/06/09 21:05:30;;;;;;;4.85;1.40;;;;;;;;;;8357665;28;20032;-62
2022/06/09 21:09:30;;;;;;;3.28;1.38;;;;;;;;;;8355067;28;20035;-62
2022/06/09 21:22:09;;;;;;;4.68;1.50;;;;;;;;;;8354853;28;20529;-62
2022/06/09 21:26:09;;;;;;;4.07;1.30;;;;;;;;;;8355971;28;20032;-61
2022/06/09 21:30:10;;;;;;;5.10;1.42;;;;;;;;;;8353373;28;20143;-62
2022/06/09 21:34:12;;;;;;;3.90;1.40;;;;;;;;;;8352203;28;20139;-62
2022/06/09 21:38:12;;;;;;;6.18;1.27;;;;;;;;;;8354288;28;20028;-64
2022/06/09 21:42:13;;;;;;;3.05;1.33;;;;;;;;;;8356017;28;20106;-62
2022/06/09 21:46:14;;;;;;;2.75;1.45;;;;;;;;;;8353070;28;20465;-62
2022/06/09 21:50:15;;;;;;;4.28;1.50;;;;;;;;;;8350557;28;20106;-61
2022/06/09 21:54:16;;;;;;;2.33;1.20;;;;;;;;;;8352466;28;20029;-63
2022/06/09 21:58:16;;;;;;;4.28;1.27;;;;;;;;;;8353658;28;20032;-62
2022/06/09 22:02:16;;;;;;;4.25;1.60;;;;;;;;;;8355304;28;20056;-62
2022/06/09 22:06:17;;;;;;;5.35;1.80;;;;;;;;;;8352501;28;20032;-62
2022/06/09 22:10:18;;;;;;;4.82;1.60;;;;;;;;;;8354192;28;20033;-62
2022/06/09 22:14:19;;;;;;;3.42;1.30;;;;;;;;;;8353541;28;20028;-62
2022/06/09 22:18:19;;;;;;;4.90;1.58;;;;;;;;;;8354382;28;20039;-62
2022/06/09 22:22:20;;;;;;;4.07;1.40;;;;;;;;;;8353668;28;20045;-62
2022/06/09 22:26:20;;;;;;;3.13;1.50;;;;;;;;;;8355839;28;20266;-62
2022/06/09 22:30:22;;;;;;;2.60;1.50;;;;;;;;;;8352311;28;20071;-62
2022/06/09 22:34:23;;;;;;;2.40;1.38;;;;;;;;;;8354805;28;20466;-62
2022/06/09 22:38:23;;;;;;;6.07;1.42;;;;;;;;;;8354356;28;20039;-62
2022/06/09 22:42:23;;;;;;;1.93;1.40;;;;;;;;;;8354324;28;20025;-62
2022/06/09 22:46:23;;;;;;;1.57;1.33;;;;;;;;;;8354869;28;20274;-62
2022/06/09 22:50:25;;;;;;;4.60;1.47;;;;;;;;;;8358695;28;20329;-62
2022/06/09 22:54:26;;;;;;;2.15;1.30;;;;;;;;;;8359085;28;20270;-62
2022/06/09 22:58:28;;;;;;;3.92;1.30;;;;;;;;;;8357721;28;20795;-62
2022/06/09 23:02:28;;;;;;;1.95;1.13;;;;;;;;;;8358750;28;20155;-62
2022/06/09 23:06:28;;;;;;;1.67;1.30;;;;;;;;;;8358746;28;20029;-62
2022/06/09 23:10:29;;;;;;;2.10;1.40;;;;;;;;;;8356561;28;20215;-62
2022/06/09 23:14:29;;;;;;;1.83;1.40;;;;;;;;;;8360029;28;20116;-62
2022/06/09 23:18:30;;;;;;;2.15;1.30;;;;;;;;;;8359098;28;20032;-62
2022/06/09 23:22:30;;;;;;;1.92;1.50;;;;;;;;;;8356332;28;20115;-63
2022/06/09 23:26:30;;;;;;;3.38;1.42;;;;;;;;;;8358892;28;20116;-63
2022/06/09 23:30:31;;;;;;;2.15;1.38;;;;;;;;;;8357935;28;20040;-61
2022/06/09 23:34:32;;;;;;;3.30;1.40;;;;;;;;;;8358943;28;20044;-63
2022/06/09 23:38:33;;;;;;;3.50;1.20;;;;;;;;;;8357016;28;20356;-62
2022/06/09 23:42:33;;;;;;;2.42;1.63;;;;;;;;;;8358609;28;20146;-62
2022/06/09 23:46:33;;;;;;;1.88;1.38;;;;;;;;;;8354479;28;20044;-62
2022/06/09 23:50:35;;;;;;;1.42;1.30;;;;;;;;;;8360561;28;20032;-62
2022/06/09 23:54:35;;;;;;;2.17;1.30;;;;;;;;;;8360412;28;20043;-62
2022/06/09 23:58:36;;;;;;;5.67;1.20;;;;;;;;;;8355803;28;20158;-61
